sensor_id;sensor_type;location;lat;lon;timestamp;temperature;humidity
41953;DHT22;63613;28.200;112.870;2022-12-18T00:01:23;10.50;43.20
41953;DHT22;63613;28.200;112.870;2022-12-18T00:03:52;10.50;43.20
41953;DHT22;63613;28.200;112.870;2022-12-18T00:06:19;10.50;43.10
41953;DHT22;63613;28.200;112.870;2022-12-18T00:08:47;10.50;43.20
41953;DHT22;63613;28.200;112.870;2022-12-18T00:11:20;10.60;43.30
41953;DHT22;63613;28.200;112.870;2022-12-18T00:13:48;10.50;43.40
41953;DHT22;63613;28.200;112.870;2022-12-18T00:16:17;10.50;43.40
41953;DHT22;63613;28.200;112.870;2022-12-18T00:18:49;10.60;43.50
41953;DHT22;63613;28.200;112.870;2022-12-18T00:21:17;10.80;43.30
41953;DHT22;63613;28.200;112.870;2022-12-18T00:23:45;10.80;43.30
41953;DHT22;63613;28.200;112.870;2022-12-18T00:26:16;10.90;43.30
41953;DHT22;63613;28.200;112.870;2022-12-18T00:28:44;10.90;43.30
41953;DHT22;63613;28.200;112.870;2022-12-18T00:31:14;10.90;43.30
41953;DHT22;63613;28.200;112.870;2022-12-18T00:33:42;10.90;43.30
41953;DHT22;63613;28.200;112.870;2022-12-18T00:36:14;10.90;43.20
41953;DHT22;63613;28.200;112.870;2022-12-18T00:38:41;10.90;43.20
41953;DHT22;63613;28.200;112.870;2022-12-18T00:41:11;11.00;43.20
41953;DHT22;63613;28.200;112.870;2022-12-18T00:43:39;11.00;43.20
41953;DHT22;63613;28.200;112.870;2022-12-18T00:46:06;11.00;43.10
41953;DHT22;63613;28.200;112.870;2022-12-18T00:48:36;10.90;43.00
41953;DHT22;63613;28.200;112.870;2022-12-18T00:51:07;11.00;43.00
41953;DHT22;63613;28.200;112.870;2022-12-18T00:53:35;11.00;43.00
41953;DHT22;63613;28.200;112.870;2022-12-18T00:56:02;11.00;42.90
41953;DHT22;63613;28.200;112.870;2022-12-18T00:58:29;11.00;42.80
41953;DHT22;63613;28.200;112.870;2022-12-18T01:00:56;11.00;42.70
41953;DHT22;63613;28.200;112.870;2022-12-18T01:03:23;11.00;42.70
41953;DHT22;63613;28.200;112.870;2022-12-18T01:05:53;11.00;42.60
41953;DHT22;63613;28.200;112.870;2022-12-18T01:08:20;11.10;42.70
41953;DHT22;63613;28.200;112.870;2022-12-18T01:10:47;11.20;44.10
41953;DHT22;63613;28.200;112.870;2022-12-18T01:13:14;11.20;44.80
41953;DHT22;63613;28.200;112.870;2022-12-18T01:15:48;11.40;45.50
41953;DHT22;63613;28.200;112.870;2022-12-18T01:18:15;11.50;45.80
41953;DHT22;63613;28.200;112.870;2022-12-18T01:20:42;11.60;45.90
41953;DHT22;63613;28.200;112.870;2022-12-18T01:23:09;11.80;45.90
41953;DHT22;63613;28.200;112.870;2022-12-18T01:25:37;11.90;46.00
41953;DHT22;63613;28.200;112.870;2022-12-18T01:28:05;12.00;46.00
41953;DHT22;63613;28.200;112.870;2022-12-18T01:30:32;12.10;46.00
41953;DHT22;63613;28.200;112.870;2022-12-18T01:32:59;12.00;46.10
41953;DHT22;63613;28.200;112.870;2022-12-18T01:35:26;12.00;45.90
41953;DHT22;63613;28.200;112.870;2022-12-18T01:37:56;12.00;45.80
41953;DHT22;63613;28.200;112.870;2022-12-18T01:40:24;11.90;45.60
41953;DHT22;63613;28.200;112.870;2022-12-18T01:42:52;11.90;45.80
41953;DHT22;63613;28.200;112.870;2022-12-18T01:45:23;11.90;45.90
41953;DHT22;63613;28.200;112.870;2022-12-18T01:48:10;11.90;45.60
41953;DHT22;63613;28.200;112.870;2022-12-18T01:50:40;11.90;45.40
41953;DHT22;63613;28.200;112.870;2022-12-18T01:55:59;11.90;44.30
41953;DHT22;63613;28.200;112.870;2022-12-18T02:01:23;11.90;43.50
41953;DHT22;63613;28.200;112.870;2022-12-18T02:03:51;11.90;43.10
41953;DHT22;63613;28.200;112.870;2022-12-18T02:06:33;11.90;43.40
41953;DHT22;63613;28.200;112.870;2022-12-18T02:09:07;11.90;43.30
41953;DHT22;63613;28.200;112.870;2022-12-18T02:14:49;11.90;43.20
41953;DHT22;63613;28.200;112.870;2022-12-18T02:17:25;11.90;42.80
41953;DHT22;63613;28.200;112.870;2022-12-18T02:26:17;11.90;41.80
41953;DHT22;63613;28.200;112.870;2022-12-18T02:29:10;11.90;41.40
41953;DHT22;63613;28.200;112.870;2022-12-18T02:31:43;12.00;41.20
41953;DHT22;63613;28.200;112.870;2022-12-18T02:34:12;12.00;42.20
41953;DHT22;63613;28.200;112.870;2022-12-18T02:37:03;12.10;43.40
41953;DHT22;63613;28.200;112.870;2022-12-18T02:39:33;12.30;43.90
41953;DHT22;63613;28.200;112.870;2022-12-18T02:42:01;12.40;44.60
41953;DHT22;63613;28.200;112.870;2022-12-18T02:44:35;12.70;45.10
41953;DHT22;63613;28.200;112.870;2022-12-18T02:47:13;12.90;46.00
41953;DHT22;63613;28.200;112.870;2022-12-18T02:49:48;13.00;46.40
41953;DHT22;63613;28.200;112.870;2022-12-18T03:01:08;13.50;48.30
41953;DHT22;63613;28.200;112.870;2022-12-18T03:04:01;13.60;48.60
41953;DHT22;63613;28.200;112.870;2022-12-18T03:06:42;13.80;48.30
41953;DHT22;63613;28.200;112.870;2022-12-18T03:09:18;14.00;48.20
41953;DHT22;63613;28.200;112.870;2022-12-18T03:11:54;14.10;48.20
41953;DHT22;63613;28.200;112.870;2022-12-18T03:14:41;14.30;48.20
41953;DHT22;63613;28.200;112.870;2022-12-18T03:17:11;14.40;48.60
41953;DHT22;63613;28.200;112.870;2022-12-18T03:20:05;14.60;48.80
41953;DHT22;63613;28.200;112.870;2022-12-18T03:22:35;14.60;48.70
41953;DHT22;63613;28.200;112.870;2022-12-18T03:25:06;14.80;48.70
41953;DHT22;63613;28.200;112.870;2022-12-18T03:27:37;14.90;48.70
41953;DHT22;63613;28.200;112.870;2022-12-18T03:30:08;15.10;48.30
41953;DHT22;63613;28.200;112.870;2022-12-18T03:33:07;15.30;47.90
41953;DHT22;63613;28.200;112.870;2022-12-18T03:35:39;15.30;47.30
41953;DHT22;63613;28.200;112.870;2022-12-18T03:38:08;15.50;47.40
41953;DHT22;63613;28.200;112.870;2022-12-18T03:47:15;16.00;46.80
41953;DHT22;63613;28.200;112.870;2022-12-18T03:49:27;16.00;47.10
41953;DHT22;63613;28.200;112.870;2022-12-18T03:54:51;16.30;47.60
41953;DHT22;63613;28.200;112.870;2022-12-18T03:57:22;16.30;47.80
41953;DHT22;63613;28.200;112.870;2022-12-18T03:59:56;16.50;48.00
41953;DHT22;63613;28.200;112.870;2022-12-18T04:02:26;16.70;48.00
41953;DHT22;63613;28.200;112.870;2022-12-18T04:04:59;16.60;47.90
41953;DHT22;63613;28.200;112.870;2022-12-18T04:07:28;16.50;47.80
41953;DHT22;63613;28.200;112.870;2022-12-18T04:09:59;16.40;47.40
41953;DHT22;63613;28.200;112.870;2022-12-18T04:12:29;16.40;47.20
41953;DHT22;63613;28.200;112.870;2022-12-18T04:14:56;16.30;47.20
41953;DHT22;63613;28.200;112.870;2022-12-18T04:17:23;16.30;47.00
41953;DHT22;63613;28.200;112.870;2022-12-18T04:19:51;16.30;46.80
41953;DHT22;63613;28.200;112.870;2022-12-18T04:22:18;16.30;46.50
41953;DHT22;63613;28.200;112.870;2022-12-18T04:24:45;16.30;46.40
41953;DHT22;63613;28.200;112.870;2022-12-18T04:27:12;16.20;45.90
41953;DHT22;63613;28.200;112.870;2022-12-18T04:29:40;16.10;45.90
41953;DHT22;63613;28.200;112.870;2022-12-18T04:32:08;16.00;46.00
41953;DHT22;63613;28.200;112.870;2022-12-18T04:34:35;16.00;45.90
41953;DHT22;63613;28.200;112.870;2022-12-18T04:37:02;15.90;50.80
41953;DHT22;63613;28.200;112.870;2022-12-18T04:39:29;15.90;54.30
41953;DHT22;63613;28.200;112.870;2022-12-18T04:42:02;15.80;53.40
41953;DHT22;63613;28.200;112.870;2022-12-18T04:44:30;15.80;54.20
41953;DHT22;63613;28.200;112.870;2022-12-18T04:46:57;15.80;53.60
41953;DHT22;63613;28.200;112.870;2022-12-18T04:49:24;15.60;47.60
41953;DHT22;63613;28.200;112.870;2022-12-18T04:51:51;14.50;29.50
41953;DHT22;63613;28.200;112.870;2022-12-18T04:54:22;13.10;34.90
41953;DHT22;63613;28.200;112.870;2022-12-18T04:56:49;13.20;28.10
41953;DHT22;63613;28.200;112.870;2022-12-18T04:59:16;13.50;31.80
41953;DHT22;63613;28.200;112.870;2022-12-18T05:01:43;13.90;29.80
41953;DHT22;63613;28.200;112.870;2022-12-18T05:04:12;13.80;27.10
41953;DHT22;63613;28.200;112.870;2022-12-18T05:06:39;13.50;25.70
41953;DHT22;63613;28.200;112.870;2022-12-18T05:09:06;13.60;25.50
41953;DHT22;63613;28.200;112.870;2022-12-18T05:11:33;13.40;24.60
41953;DHT22;63613;28.200;112.870;2022-12-18T05:14:00;13.50;25.00
41953;DHT22;63613;28.200;112.870;2022-12-18T05:16:27;13.40;24.50
41953;DHT22;63613;28.200;112.870;2022-12-18T05:18:54;13.30;24.80
41953;DHT22;63613;28.200;112.870;2022-12-18T05:21:21;13.10;24.80
41953;DHT22;63613;28.200;112.870;2022-12-18T05:23:48;13.20;25.00
41953;DHT22;63613;28.200;112.870;2022-12-18T05:26:17;13.40;26.00
41953;DHT22;63613;28.200;112.870;2022-12-18T05:29:04;13.40;25.90
41953;DHT22;63613;28.200;112.870;2022-12-18T05:31:32;13.50;26.00
41953;DHT22;63613;28.200;112.870;2022-12-18T05:33:59;13.80;26.10
41953;DHT22;63613;28.200;112.870;2022-12-18T05:36:26;13.80;26.30
41953;DHT22;63613;28.200;112.870;2022-12-18T05:38:53;14.10;27.30
41953;DHT22;63613;28.200;112.870;2022-12-18T05:41:40;14.40;27.60
41953;DHT22;63613;28.200;112.870;2022-12-18T05:44:08;14.60;27.70
41953;DHT22;63613;28.200;112.870;2022-12-18T05:46:35;14.70;27.40
41953;DHT22;63613;28.200;112.870;2022-12-18T05:49:04;14.80;27.50
41953;DHT22;63613;28.200;112.870;2022-12-18T05:51:31;14.90;28.30
41953;DHT22;63613;28.200;112.870;2022-12-18T05:53:58;15.10;28.10
41953;DHT22;63613;28.200;112.870;2022-12-18T05:56:25;15.20;26.80
41953;DHT22;63613;28.200;112.870;2022-12-18T05:58:54;15.40;25.70
41953;DHT22;63613;28.200;112.870;2022-12-18T06:01:24;15.50;25.50
41953;DHT22;63613;28.200;112.870;2022-12-18T06:03:52;15.70;26.60
41953;DHT22;63613;28.200;112.870;2022-12-18T06:06:22;15.90;26.80
41953;DHT22;63613;28.200;112.870;2022-12-18T06:08:51;16.50;26.70
41953;DHT22;63613;28.200;112.870;2022-12-18T06:11:22;17.60;25.30
41953;DHT22;63613;28.200;112.870;2022-12-18T06:13:53;18.80;25.40
41953;DHT22;63613;28.200;112.870;2022-12-18T06:16:21;20.20;30.30
41953;DHT22;63613;28.200;112.870;2022-12-18T06:18:51;21.00;31.90
41953;DHT22;63613;28.200;112.870;2022-12-18T06:21:18;21.60;29.70
41953;DHT22;63613;28.200;112.870;2022-12-18T06:23:46;21.90;28.70
41953;DHT22;63613;28.200;112.870;2022-12-18T06:26:13;22.30;28.00
41953;DHT22;63613;28.200;112.870;2022-12-18T06:28:41;22.60;27.50
41953;DHT22;63613;28.200;112.870;2022-12-18T06:31:10;22.80;27.10
41953;DHT22;63613;28.200;112.870;2022-12-18T06:33:38;23.20;26.80
41953;DHT22;63613;28.200;112.870;2022-12-18T06:36:13;23.50;26.70
41953;DHT22;63613;28.200;112.870;2022-12-18T06:38:59;23.70;26.30
41953;DHT22;63613;28.200;112.870;2022-12-18T06:41:28;24.00;25.80
41953;DHT22;63613;28.200;112.870;2022-12-18T06:43:57;24.20;25.60
41953;DHT22;63613;28.200;112.870;2022-12-18T06:46:25;24.30;25.40
41953;DHT22;63613;28.200;112.870;2022-12-18T06:48:52;23.40;25.90
41953;DHT22;63613;28.200;112.870;2022-12-18T06:51:23;21.20;28.60
41953;DHT22;63613;28.200;112.870;2022-12-18T06:54:10;20.10;30.40
41953;DHT22;63613;28.200;112.870;2022-12-18T06:56:37;19.40;31.60
41953;DHT22;63613;28.200;112.870;2022-12-18T06:59:25;19.10;31.90
41953;DHT22;63613;28.200;112.870;2022-12-18T07:01:52;18.80;31.70
41953;DHT22;63613;28.200;112.870;2022-12-18T07:04:19;18.70;32.00
41953;DHT22;63613;28.200;112.870;2022-12-18T07:06:46;18.50;32.40
41953;DHT22;63613;28.200;112.870;2022-12-18T07:09:13;18.40;32.80
41953;DHT22;63613;28.200;112.870;2022-12-18T07:11:40;18.20;33.10
41953;DHT22;63613;28.200;112.870;2022-12-18T07:14:08;18.10;33.20
41953;DHT22;63613;28.200;112.870;2022-12-18T07:16:38;17.90;33.30
41953;DHT22;63613;28.200;112.870;2022-12-18T07:19:05;17.90;32.90
41953;DHT22;63613;28.200;112.870;2022-12-18T07:21:33;17.80;32.40
41953;DHT22;63613;28.200;112.870;2022-12-18T07:24:00;17.70;31.80
41953;DHT22;63613;28.200;112.870;2022-12-18T07:26:27;17.50;31.90
41953;DHT22;63613;28.200;112.870;2022-12-18T07:28:57;17.40;31.90
41953;DHT22;63613;28.200;112.870;2022-12-18T07:31:25;17.30;31.90
41953;DHT22;63613;28.200;112.870;2022-12-18T07:33:53;17.20;31.30
41953;DHT22;63613;28.200;112.870;2022-12-18T07:36:21;17.10;30.80
41953;DHT22;63613;28.200;112.870;2022-12-18T07:38:49;16.90;30.70
41953;DHT22;63613;28.200;112.870;2022-12-18T07:41:19;16.80;31.00
41953;DHT22;63613;28.200;112.870;2022-12-18T07:43:46;16.70;31.00
41953;DHT22;63613;28.200;112.870;2022-12-18T07:46:18;16.70;31.40
41953;DHT22;63613;28.200;112.870;2022-12-18T07:48:48;16.60;31.90
41953;DHT22;63613;28.200;112.870;2022-12-18T07:51:20;16.50;32.10
41953;DHT22;63613;28.200;112.870;2022-12-18T07:53:50;16.40;32.30
41953;DHT22;63613;28.200;112.870;2022-12-18T07:56:17;16.40;32.70
41953;DHT22;63613;28.200;112.870;2022-12-18T07:58:46;16.30;33.30
41953;DHT22;63613;28.200;112.870;2022-12-18T08:01:13;16.30;33.70
41953;DHT22;63613;28.200;112.870;2022-12-18T08:03:42;16.20;33.80
41953;DHT22;63613;28.200;112.870;2022-12-18T08:06:10;16.10;34.30
41953;DHT22;63613;28.200;112.870;2022-12-18T08:08:37;16.10;34.70
41953;DHT22;63613;28.200;112.870;2022-12-18T08:11:04;16.00;35.30
41953;DHT22;63613;28.200;112.870;2022-12-18T08:13:32;16.00;36.00
41953;DHT22;63613;28.200;112.870;2022-12-18T08:16:03;16.00;36.10
41953;DHT22;63613;28.200;112.870;2022-12-18T08:18:52;16.50;35.60
41953;DHT22;63613;28.200;112.870;2022-12-18T08:21:23;18.50;32.90
41953;DHT22;63613;28.200;112.870;2022-12-18T08:23:51;19.40;31.50
41953;DHT22;63613;28.200;112.870;2022-12-18T08:26:19;19.80;30.90
41953;DHT22;63613;28.200;112.870;2022-12-18T08:28:46;19.80;30.90
41953;DHT22;63613;28.200;112.870;2022-12-18T08:31:13;19.80;31.20
41953;DHT22;63613;28.200;112.870;2022-12-18T08:33:41;19.30;32.10
41953;DHT22;63613;28.200;112.870;2022-12-18T08:36:10;18.60;33.40
41953;DHT22;63613;28.200;112.870;2022-12-18T08:38:37;18.10;34.60
41953;DHT22;63613;28.200;112.870;2022-12-18T08:41:12;17.90;35.10
41953;DHT22;63613;28.200;112.870;2022-12-18T08:43:40;17.80;35.50
41953;DHT22;63613;28.200;112.870;2022-12-18T08:46:27;17.50;35.90
41953;DHT22;63613;28.200;112.870;2022-12-18T08:48:54;17.30;36.00
41953;DHT22;63613;28.200;112.870;2022-12-18T08:51:22;17.10;36.10
41953;DHT22;63613;28.200;112.870;2022-12-18T08:53:49;17.10;36.00
41953;DHT22;63613;28.200;112.870;2022-12-18T08:56:16;17.20;35.80
41953;DHT22;63613;28.200;112.870;2022-12-18T08:58:43;17.00;35.90
41953;DHT22;63613;28.200;112.870;2022-12-18T09:01:14;16.80;36.00
41953;DHT22;63613;28.200;112.870;2022-12-18T09:03:41;16.60;36.70
41953;DHT22;63613;28.200;112.870;2022-12-18T09:06:09;16.60;44.80
41953;DHT22;63613;28.200;112.870;2022-12-18T09:08:40;16.60;48.30
41953;DHT22;63613;28.200;112.870;2022-12-18T09:11:22;16.60;51.50
41953;DHT22;63613;28.200;112.870;2022-12-18T09:13:52;16.40;56.00
41953;DHT22;63613;28.200;112.870;2022-12-18T09:16:23;16.30;59.20
41953;DHT22;63613;28.200;112.870;2022-12-18T09:18:51;16.20;61.00
41953;DHT22;63613;28.200;112.870;2022-12-18T09:21:27;16.10;62.40
41953;DHT22;63613;28.200;112.870;2022-12-18T09:23:55;16.00;63.70
41953;DHT22;63613;28.200;112.870;2022-12-18T09:26:24;15.90;64.30
41953;DHT22;63613;28.200;112.870;2022-12-18T09:29:11;15.80;64.40
41953;DHT22;63613;28.200;112.870;2022-12-18T09:31:38;15.80;66.00
41953;DHT22;63613;28.200;112.870;2022-12-18T09:34:06;15.70;65.90
41953;DHT22;63613;28.200;112.870;2022-12-18T09:36:33;15.60;66.40
41953;DHT22;63613;28.200;112.870;2022-12-18T09:39:03;15.50;66.90
41953;DHT22;63613;28.200;112.870;2022-12-18T09:41:54;15.40;66.80
41953;DHT22;63613;28.200;112.870;2022-12-18T09:47:34;15.30;67.90
41953;DHT22;63613;28.200;112.870;2022-12-18T09:50:13;15.20;68.40
41953;DHT22;63613;28.200;112.870;2022-12-18T09:52:46;15.20;68.80
41953;DHT22;63613;28.200;112.870;2022-12-18T09:55:39;15.10;69.30
41953;DHT22;63613;28.200;112.870;2022-12-18T09:58:24;15.00;69.40
41953;DHT22;63613;28.200;112.870;2022-12-18T10:00:54;15.00;69.70
41953;DHT22;63613;28.200;112.870;2022-12-18T10:03:23;14.90;69.80
41953;DHT22;63613;28.200;112.870;2022-12-18T10:08:52;14.90;70.10
41953;DHT22;63613;28.200;112.870;2022-12-18T10:23:04;14.70;70.40
41953;DHT22;63613;28.200;112.870;2022-12-18T10:25:55;14.70;69.50
41953;DHT22;63613;28.200;112.870;2022-12-18T10:28:25;14.60;68.90
41953;DHT22;63613;28.200;112.870;2022-12-18T10:30:53;14.60;68.90
41953;DHT22;63613;28.200;112.870;2022-12-18T10:33:23;14.60;69.40
41953;DHT22;63613;28.200;112.870;2022-12-18T10:36:09;14.50;69.20
41953;DHT22;63613;28.200;112.870;2022-12-18T10:38:37;14.40;69.60
41953;DHT22;63613;28.200;112.870;2022-12-18T10:41:06;14.40;70.20
41953;DHT22;63613;28.200;112.870;2022-12-18T10:43:39;14.30;70.00
41953;DHT22;63613;28.200;112.870;2022-12-18T10:48:56;14.30;70.70
41953;DHT22;63613;28.200;112.870;2022-12-18T10:51:36;14.30;71.40
41953;DHT22;63613;28.200;112.870;2022-12-18T10:54:21;14.30;71.50
41953;DHT22;63613;28.200;112.870;2022-12-18T10:56:49;14.20;71.80
41953;DHT22;63613;28.200;112.870;2022-12-18T10:59:17;14.20;72.00
41953;DHT22;63613;28.200;112.870;2022-12-18T11:01:58;14.10;72.60
41953;DHT22;63613;28.200;112.870;2022-12-18T11:04:52;14.10;73.10
41953;DHT22;63613;28.200;112.870;2022-12-18T11:07:19;14.10;73.20
41953;DHT22;63613;28.200;112.870;2022-12-18T11:10:00;14.10;73.50
41953;DHT22;63613;28.200;112.870;2022-12-18T11:12:29;14.20;74.00
41953;DHT22;63613;28.200;112.870;2022-12-18T11:14:56;14.20;74.00
41953;DHT22;63613;28.200;112.870;2022-12-18T11:17:32;14.20;74.30
41953;DHT22;63613;28.200;112.870;2022-12-18T11:20:07;14.30;74.40
41953;DHT22;63613;28.200;112.870;2022-12-18T11:22:41;14.30;73.50
41953;DHT22;63613;28.200;112.870;2022-12-18T11:27:40;14.30;71.50
41953;DHT22;63613;28.200;112.870;2022-12-18T11:35:32;14.30;68.90
41953;DHT22;63613;28.200;112.870;2022-12-18T11:38:19;14.30;70.40
41953;DHT22;63613;28.200;112.870;2022-12-18T11:41:04;14.20;70.80
41953;DHT22;63613;28.200;112.870;2022-12-18T11:44:06;14.20;71.10
41953;DHT22;63613;28.200;112.870;2022-12-18T11:46:49;14.10;71.60
41953;DHT22;63613;28.200;112.870;2022-12-18T11:49:36;14.10;71.20
41953;DHT22;63613;28.200;112.870;2022-12-18T11:52:24;14.00;72.60
41953;DHT22;63613;28.200;112.870;2022-12-18T11:54:57;14.00;73.00
41953;DHT22;63613;28.200;112.870;2022-12-18T11:57:54;14.00;73.30
41953;DHT22;63613;28.200;112.870;2022-12-18T12:00:24;14.00;72.80
41953;DHT22;63613;28.200;112.870;2022-12-18T12:03:15;13.90;72.90
41953;DHT22;63613;28.200;112.870;2022-12-18T12:06:01;13.90;73.50
41953;DHT22;63613;28.200;112.870;2022-12-18T12:12:21;13.90;72.60
41953;DHT22;63613;28.200;112.870;2022-12-18T12:17:42;13.80;68.70
41953;DHT22;63613;28.200;112.870;2022-12-18T12:20:33;13.70;67.10
41953;DHT22;63613;28.200;112.870;2022-12-18T12:31:07;13.60;67.20
41953;DHT22;63613;28.200;112.870;2022-12-18T12:33:57;13.60;68.50
41953;DHT22;63613;28.200;112.870;2022-12-18T12:39:28;13.60;70.20
41953;DHT22;63613;28.200;112.870;2022-12-18T12:41:58;13.50;71.10
41953;DHT22;63613;28.200;112.870;2022-12-18T12:44:51;13.50;72.00
41953;DHT22;63613;28.200;112.870;2022-12-18T12:47:40;13.50;72.60
41953;DHT22;63613;28.200;112.870;2022-12-18T12:50:18;13.50;72.80
41953;DHT22;63613;28.200;112.870;2022-12-18T12:52:53;13.40;73.20
41953;DHT22;63613;28.200;112.870;2022-12-18T12:55:26;13.40;73.60
41953;DHT22;63613;28.200;112.870;2022-12-18T13:01:04;13.40;73.80
41953;DHT22;63613;28.200;112.870;2022-12-18T13:03:41;13.40;73.50
41953;DHT22;63613;28.200;112.870;2022-12-18T13:08:56;13.40;73.70
41953;DHT22;63613;28.200;112.870;2022-12-18T13:11:49;13.40;73.70
41953;DHT22;63613;28.200;112.870;2022-12-18T13:14:39;13.40;73.20
41953;DHT22;63613;28.200;112.870;2022-12-18T13:20:05;13.40;73.20
41953;DHT22;63613;28.200;112.870;2022-12-18T13:22:53;13.40;73.10
41953;DHT22;63613;28.200;112.870;2022-12-18T13:25:33;13.40;74.00
41953;DHT22;63613;28.200;112.870;2022-12-18T13:28:10;13.30;74.20
41953;DHT22;63613;28.200;112.870;2022-12-18T13:30:43;13.30;74.90
41953;DHT22;63613;28.200;112.870;2022-12-18T13:38:37;13.30;75.80
41953;DHT22;63613;28.200;112.870;2022-12-18T13:41:26;13.30;75.80
41953;DHT22;63613;28.200;112.870;2022-12-18T13:43:57;13.30;76.10
41953;DHT22;63613;28.200;112.870;2022-12-18T13:46:48;13.30;76.10
41953;DHT22;63613;28.200;112.870;2022-12-18T13:49:23;13.30;76.10
41953;DHT22;63613;28.200;112.870;2022-12-18T13:51:53;13.30;75.80
41953;DHT22;63613;28.200;112.870;2022-12-18T13:56:57;13.30;76.00
41953;DHT22;63613;28.200;112.870;2022-12-18T13:59:36;13.30;75.80
41953;DHT22;63613;28.200;112.870;2022-12-18T14:02:24;13.30;76.00
41953;DHT22;63613;28.200;112.870;2022-12-18T14:04:52;13.30;76.20
41953;DHT22;63613;28.200;112.870;2022-12-18T14:07:27;13.20;76.10
41953;DHT22;63613;28.200;112.870;2022-12-18T14:10:01;13.20;75.80
41953;DHT22;63613;28.200;112.870;2022-12-18T14:12:31;13.20;75.70
41953;DHT22;63613;28.200;112.870;2022-12-18T14:15:30;13.20;75.40
41953;DHT22;63613;28.200;112.870;2022-12-18T14:18:18;13.20;75.20
41953;DHT22;63613;28.200;112.870;2022-12-18T14:20:48;13.20;75.10
41953;DHT22;63613;28.200;112.870;2022-12-18T14:26:03;13.20;75.30
41953;DHT22;63613;28.200;112.870;2022-12-18T14:28:50;13.10;75.20
41953;DHT22;63613;28.200;112.870;2022-12-18T14:31:23;13.20;75.50
41953;DHT22;63613;28.200;112.870;2022-12-18T14:33:54;13.20;75.80
41953;DHT22;63613;28.200;112.870;2022-12-18T14:36:26;13.20;75.80
41953;DHT22;63613;28.200;112.870;2022-12-18T14:38:57;13.20;75.90
41953;DHT22;63613;28.200;112.870;2022-12-18T14:41:25;13.20;75.30
41953;DHT22;63613;28.200;112.870;2022-12-18T14:43:56;13.10;75.60
41953;DHT22;63613;28.200;112.870;2022-12-18T14:46:43;13.20;75.60
41953;DHT22;63613;28.200;112.870;2022-12-18T14:49:31;13.10;75.40
41953;DHT22;63613;28.200;112.870;2022-12-18T14:52:03;13.20;75.60
41953;DHT22;63613;28.200;112.870;2022-12-18T14:54:37;13.10;75.80
41953;DHT22;63613;28.200;112.870;2022-12-18T14:57:05;13.10;75.40
41953;DHT22;63613;28.200;112.870;2022-12-18T14:59:33;13.10;75.40
41953;DHT22;63613;28.200;112.870;2022-12-18T15:04:37;13.10;75.60
41953;DHT22;63613;28.200;112.870;2022-12-18T15:07:14;13.20;75.50
41953;DHT22;63613;28.200;112.870;2022-12-18T15:10:00;13.10;75.30
41953;DHT22;63613;28.200;112.870;2022-12-18T15:12:39;13.10;75.60
41953;DHT22;63613;28.200;112.870;2022-12-18T15:18:25;13.10;75.60
41953;DHT22;63613;28.200;112.870;2022-12-18T15:20:59;13.10;75.60
41953;DHT22;63613;28.200;112.870;2022-12-18T15:23:27;13.10;76.00
41953;DHT22;63613;28.200;112.870;2022-12-18T15:25:57;13.10;75.80
41953;DHT22;63613;28.200;112.870;2022-12-18T15:34:10;13.10;75.40
41953;DHT22;63613;28.200;112.870;2022-12-18T15:36:38;13.10;75.30
41953;DHT22;63613;28.200;112.870;2022-12-18T15:39:06;13.10;75.30
41953;DHT22;63613;28.200;112.870;2022-12-18T15:41:36;13.10;75.70
41953;DHT22;63613;28.200;112.870;2022-12-18T15:44:21;13.10;75.50
41953;DHT22;63613;28.200;112.870;2022-12-18T15:46:49;13.10;75.30
41953;DHT22;63613;28.200;112.870;2022-12-18T15:49:16;13.00;75.60
41953;DHT22;63613;28.200;112.870;2022-12-18T15:51:43;13.00;75.30
41953;DHT22;63613;28.200;112.870;2022-12-18T15:54:13;13.00;75.20
41953;DHT22;63613;28.200;112.870;2022-12-18T15:57:01;13.00;75.00
41953;DHT22;63613;28.200;112.870;2022-12-18T15:59:45;13.00;74.80
41953;DHT22;63613;28.200;112.870;2022-12-18T16:02:17;13.10;74.50
41953;DHT22;63613;28.200;112.870;2022-12-18T16:04:44;13.10;73.90
41953;DHT22;63613;28.200;112.870;2022-12-18T16:07:15;13.00;74.20
41953;DHT22;63613;28.200;112.870;2022-12-18T16:09:42;13.00;74.60
41953;DHT22;63613;28.200;112.870;2022-12-18T16:12:21;13.00;74.60
41953;DHT22;63613;28.200;112.870;2022-12-18T16:14:51;13.00;74.60
41953;DHT22;63613;28.200;112.870;2022-12-18T16:17:18;13.00;74.90
41953;DHT22;63613;28.200;112.870;2022-12-18T16:19:46;13.00;74.70
41953;DHT22;63613;28.200;112.870;2022-12-18T16:22:22;13.00;74.50
41953;DHT22;63613;28.200;112.870;2022-12-18T16:24:50;13.00;74.10
41953;DHT22;63613;28.200;112.870;2022-12-18T16:27:18;13.00;74.20
41953;DHT22;63613;28.200;112.870;2022-12-18T16:29:46;13.00;74.30
41953;DHT22;63613;28.200;112.870;2022-12-18T16:32:19;13.00;74.40
41953;DHT22;63613;28.200;112.870;2022-12-18T16:34:47;13.00;73.00
41953;DHT22;63613;28.200;112.870;2022-12-18T16:37:15;13.00;73.50
41953;DHT22;63613;28.200;112.870;2022-12-18T16:39:42;13.00;73.80
41953;DHT22;63613;28.200;112.870;2022-12-18T16:42:18;13.00;74.20
41953;DHT22;63613;28.200;112.870;2022-12-18T16:44:49;13.00;74.20
41953;DHT22;63613;28.200;112.870;2022-12-18T16:47:16;13.00;74.40
41953;DHT22;63613;28.200;112.870;2022-12-18T16:49:44;13.00;74.20
41953;DHT22;63613;28.200;112.870;2022-12-18T16:52:12;13.00;73.90
41953;DHT22;63613;28.200;112.870;2022-12-18T16:54:42;13.00;73.20
41953;DHT22;63613;28.200;112.870;2022-12-18T16:57:14;13.00;72.80
41953;DHT22;63613;28.200;112.870;2022-12-18T16:59:41;13.00;72.40
41953;DHT22;63613;28.200;112.870;2022-12-18T17:02:17;12.90;72.20
41953;DHT22;63613;28.200;112.870;2022-12-18T17:04:45;13.00;72.10
41953;DHT22;63613;28.200;112.870;2022-12-18T17:07:12;12.90;71.60
41953;DHT22;63613;28.200;112.870;2022-12-18T17:09:39;12.90;70.70
41953;DHT22;63613;28.200;112.870;2022-12-18T17:12:07;12.90;70.50
41953;DHT22;63613;28.200;112.870;2022-12-18T17:14:38;12.90;71.10
41953;DHT22;63613;28.200;112.870;2022-12-18T17:17:05;12.90;71.70
41953;DHT22;63613;28.200;112.870;2022-12-18T17:19:33;12.90;71.50
41953;DHT22;63613;28.200;112.870;2022-12-18T17:22:00;12.90;71.60
41953;DHT22;63613;28.200;112.870;2022-12-18T17:24:27;12.90;70.80